Time;durP1;ratioP1;P1;durP2;ratioP2;P2;SDS_P1;SDS_P2;PMS_P1;PMS_P2;Temp;Humidity;BMP_temperature;BMP_pressure;BME280_temperature;BME280_humidity;BME280_pressure;Samples;Min_cycle;Max_cycle;Signal;HPM_P1;HPM_P2
2022/07/24 00:02:06;;;;;;;19.23;16.82;;;;;;;19.94;100.00;98851.89;2118077;83;21084;-84
2022/07/24 00:05:06;;;;;;;21.07;15.53;;;;;;;19.92;100.00;98852.11;2116881;83;21009;-84
2022/07/24 00:08:07;;;;;;;19.23;13.98;;;;;;;19.86;100.00;98853.88;2120251;83;21498;-84
2022/07/24 00:11:08;;;;;;;15.55;13.22;;;;;;;19.80;100.00;98858.80;2113291;83;21630;-84
2022/07/24 00:14:08;;;;;;;14.25;12.93;;;;;;;19.80;100.00;98862.78;2123969;83;21038;-84
2022/07/24 00:17:09;;;;;;;12.75;11.50;;;;;;;19.80;100.00;98858.80;2112932;83;21619;-84
2022/07/24 00:20:10;;;;;;;13.15;11.57;;;;;;;19.77;100.00;98855.81;2114373;83;21018;-84
2022/07/24 00:23:11;;;;;;;13.83;12.23;;;;;;;19.79;100.00;98855.86;2109602;83;21513;-84
2022/07/24 00:26:11;;;;;;;12.28;11.08;;;;;;;19.80;100.00;98863.30;2127551;83;21095;-84
2022/07/24 00:29:12;;;;;;;13.68;12.47;;;;;;;19.83;100.00;98853.52;2121350;83;21057;-83
2022/07/24 00:32:13;;;;;;;14.00;12.60;;;;;;;19.88;100.00;98856.30;2120113;83;21452;-83
2022/07/24 00:35:14;;;;;;;15.50;14.00;;;;;;;19.91;100.00;98859.80;2127135;83;21088;-83
2022/07/24 00:38:14;;;;;;;15.10;13.60;;;;;;;19.91;100.00;98861.65;2099025;83;21049;-84
2022/07/24 00:41:15;;;;;;;14.15;12.70;;;;;;;19.85;100.00;98856.25;2105028;83;21069;-82
2022/07/24 00:44:16;;;;;;;16.93;14.03;;;;;;;19.84;100.00;98861.77;2121292;83;21077;-82
2022/07/24 00:47:17;;;;;;;16.62;14.98;;;;;;;19.90;100.00;98870.14;2121203;83;21015;-83
2022/07/24 00:50:17;;;;;;;17.75;15.72;;;;;;;19.92;100.00;98877.34;2104854;83;21021;-82
2022/07/24 00:53:18;;;;;;;18.20;16.30;;;;;;;19.88;100.00;98878.36;2114314;83;21168;-83
2022/07/24 00:56:19;;;;;;;16.73;15.03;;;;;;;19.89;100.00;98878.64;2112450;83;21037;-83
2022/07/24 00:59:20;;;;;;;17.32;15.45;;;;;;;19.86;100.00;98875.66;2119843;83;21057;-83
2022/07/24 01:02:20;;;;;;;17.42;15.65;;;;;;;19.84;100.00;98879.05;2122563;83;21594;-82
2022/07/24 01:05:21;;;;;;;16.62;14.78;;;;;;;19.75;100.00;98885.27;2118001;83;21568;-83
2022/07/24 01:08:21;;;;;;;16.50;14.93;;;;;;;19.70;100.00;98890.99;2119710;84;21045;-82
2022/07/24 01:11:22;;;;;;;23.60;18.90;;;;;;;19.70;100.00;98892.31;2122134;83;21037;-84
2022/07/24 01:14:23;;;;;;;20.25;18.15;;;;;;;19.64;100.00;98886.61;2124611;83;21025;-83
2022/07/24 01:17:24;;;;;;;17.90;15.70;;;;;;;19.59;100.00;98895.29;2108824;83;21013;-83
2022/07/24 01:20:24;;;;;;;22.62;19.32;;;;;;;19.57;100.00;98888.89;2122392;83;21056;-84
2022/07/24 01:23:25;;;;;;;19.95;17.85;;;;;;;19.59;100.00;98883.34;2119819;83;20989;-83
2022/07/24 01:26:26;;;;;;;22.13;17.62;;;;;;;19.56;100.00;98891.75;2131086;83;21565;-83
2022/07/24 01:29:27;;;;;;;18.90;16.90;;;;;;;19.49;100.00;98883.09;2120431;83;21006;-83
2022/07/24 01:32:27;;;;;;;23.83;19.55;;;;;;;19.49;100.00;98884.42;2109459;83;21012;-83
2022/07/24 01:35:28;;;;;;;21.87;19.55;;;;;;;19.47;100.00;98888.61;2114206;83;21111;-83
2022/07/24 01:38:29;;;;;;;24.67;20.00;;;;;;;19.44;100.00;98886.95;2107792;83;20997;-83
2022/07/24 01:41:30;;;;;;;25.57;21.33;;;;;;;19.43;100.00;98882.16;2114609;83;21540;-83
2022/07/24 01:44:30;;;;;;;25.72;22.62;;;;;;;19.42;100.00;98887.19;2108829;83;21641;-83
2022/07/24 01:47:31;;;;;;;28.62;23.47;;;;;;;19.43;100.00;98888.00;2120784;83;20978;-83
2022/07/24 01:50:32;;;;;;;29.82;26.62;;;;;;;19.37;100.00;98879.63;2117281;83;21033;-82
2022/07/24 01:53:32;;;;;;;29.65;25.92;;;;;;;19.31;100.00;98879.52;2123196;83;21013;-83
2022/07/24 01:56:33;;;;;;;28.87;23.80;;;;;;;19.29;100.00;98890.06;2121591;83;20994;-83
2022/07/24 01:59:34;;;;;;;26.73;23.62;;;;;;;19.25;100.00;98889.73;2105290;83;21116;-83
2022/07/24 02:02:35;;;;;;;29.75;26.57;;;;;;;19.20;100.00;98884.81;2124035;83;21021;-83
2022/07/24 02:05:35;;;;;;;29.52;25.25;;;;;;;19.17;100.00;98882.63;2116691;82;21564;-83
2022/07/24 02:08:36;;;;;;;27.37;23.92;;;;;;;19.10;100.00;98878.76;2101987;83;21056;-83
2022/07/24 02:11:37;;;;;;;25.52;22.87;;;;;;;19.04;100.00;98883.67;2127328;82;21485;-83
2022/07/24 02:14:37;;;;;;;24.23;21.48;;;;;;;18.99;100.00;98880.37;2121713;82;21061;-84
2022/07/24 02:17:38;;;;;;;25.25;20.27;;;;;;;18.92;100.00;98884.97;2128962;83;21017;-84
2022/07/24 02:20:39;;;;;;;21.60;19.37;;;;;;;18.89;100.00;98878.81;2123052;83;21061;-84
2022/07/24 02:23:40;;;;;;;21.57;19.30;;;;;;;18.86;100.00;98877.14;2126962;83;21045;-83
2022/07/24 02:26:40;;;;;;;24.80;19.77;;;;;;;18.84;100.00;98882.68;2114866;83;21040;-84
2022/07/24 02:29:41;;;;;;;21.37;19.27;;;;;;;18.82;100.00;98876.77;2110712;83;20997;-83
2022/07/24 02:32:42;;;;;;;22.45;20.15;;;;;;;18.76;100.00;98875.05;2124092;83;21081;-83
2022/07/24 02:35:43;;;;;;;20.62;18.57;;;;;;;18.70;100.00;98881.27;2108426;83;21064;-83
2022/07/24 02:38:43;;;;;;;20.80;18.73;;;;;;;18.65;100.00;98888.59;2120421;83;21111;-83
2022/07/24 02:41:44;;;;;;;21.00;18.75;;;;;;;18.61;100.00;98882.08;2113514;83;21021;-82
2022/07/24 02:44:45;;;;;;;20.82;18.70;;;;;;;18.62;100.00;98887.66;2125420;83;21054;-82
2022/07/24 02:47:45;;;;;;;21.93;19.73;;;;;;;18.64;100.00;98885.59;2115700;83;21509;-82
2022/07/24 02:50:46;;;;;;;18.10;16.27;;;;;;;18.68;100.00;98890.78;2129851;83;21525;-82
2022/07/24 02:53:47;;;;;;;48.08;21.75;;;;;;;18.68;100.00;98888.64;2126578;83;21486;-83
2022/07/24 02:56:48;;;;;;;25.88;21.70;;;;;;;18.70;100.00;98895.33;2125323;83;21141;-83
2022/07/24 02:59:51;;;;;;;19.02;17.23;;;;;;;18.69;100.00;98901.67;2110857;83;21544;-83
2022/07/24 03:02:51;;;;;;;20.17;18.02;;;;;;;18.68;100.00;98903.23;2121400;83;21130;-83
2022/07/24 03:05:52;;;;;;;20.10;17.90;;;;;;;18.68;100.00;98906.69;2117280;83;21085;-84
2022/07/24 03:08:53;;;;;;;18.05;16.23;;;;;;;18.68;100.00;98916.49;2108192;83;21056;-83
2022/07/24 03:11:54;;;;;;;17.35;15.45;;;;;;;18.67;100.00;98916.20;2117675;83;21061;-84
2022/07/24 03:14:55;;;;;;;17.77;15.93;;;;;;;18.71;100.00;98912.05;2118451;83;21125;-84
2022/07/24 03:17:56;;;;;;;16.90;15.13;;;;;;;18.70;100.00;98919.72;2128040;83;21689;-84
2022/07/24 03:20:57;;;;;;;17.52;15.70;;;;;;;18.70;100.00;98920.52;2109935;83;21013;-85
2022/07/24 03:23:57;;;;;;;17.60;14.85;;;;;;;18.71;100.00;98927.96;2113328;83;21056;-84
2022/07/24 03:26:59;;;;;;;16.70;15.13;;;;;;;18.69;100.00;98934.02;2106289;83;21078;-83
2022/07/24 03:30:00;;;;;;;17.85;15.90;;;;;;;18.69;100.00;98934.02;2122964;83;21575;-84
2022/07/24 03:33:01;;;;;;;17.85;14.23;;;;;;;18.78;100.00;98938.48;2117722;83;21101;-84
2022/07/24 03:39:04;;;;;;;17.57;15.65;;;;;;;18.83;100.00;98937.27;2050772;86;21109;-83
2022/07/24 03:42:05;;;;;;;17.05;15.40;;;;;;;18.87;100.00;98949.05;2052418;85;21524;-81
2022/07/24 03:45:05;;;;;;;14.80;13.50;;;;;;;18.84;100.00;98948.19;2050157;86;21049;-82
2022/07/24 03:48:07;;;;;;;17.17;15.48;;;;;;;18.79;100.00;98943.55;2051188;85;21084;-82
2022/07/24 03:51:08;;;;;;;16.67;15.00;;;;;;;18.81;100.00;98943.32;2054198;85;21145;-83
2022/07/24 03:54:09;;;;;;;20.08;14.75;;;;;;;18.80;100.00;98945.69;2053783;85;21521;-83
2022/07/24 03:57:09;;;;;;;18.82;14.47;;;;;;;18.84;100.00;98947.67;2054480;85;21436;-83
2022/07/24 04:00:10;;;;;;;17.67;14.18;;;;;;;18.85;100.00;98946.63;2056472;85;21101;-84
2022/07/24 04:03:11;;;;;;;14.38;13.08;;;;;;;19.03;100.00;98951.86;2048770;86;21034;-83
2022/07/24 04:06:12;;;;;;;16.00;14.25;;;;;;;19.22;100.00;98949.92;2052353;86;21156;-84
2022/07/24 04:09:13;;;;;;;14.53;13.10;;;;;;;19.28;100.00;98951.64;2048051;86;21045;-83
2022/07/24 04:12:13;;;;;;;14.73;13.32;;;;;;;19.27;100.00;98957.19;2054553;84;21113;-84
2022/07/24 04:15:14;;;;;;;15.85;14.23;;;;;;;19.29;100.00;98961.73;2047425;85;21567;-83
2022/07/24 04:18:17;;;;;;;16.45;14.75;;;;;;;19.24;100.00;98969.08;2052574;85;21069;-84
2022/07/24 04:21:17;;;;;;;16.05;14.45;;;;;;;19.17;100.00;98972.34;2052194;84;21109;-83
2022/07/24 04:24:18;;;;;;;18.45;14.70;;;;;;;19.15;100.00;98969.64;2052724;85;21060;-83
2022/07/24 04:27:19;;;;;;;17.87;14.90;;;;;;;19.10;100.00;98972.97;2053518;86;21073;-83
2022/07/24 04:30:19;;;;;;;19.50;14.03;;;;;;;19.12;100.00;98975.42;2050746;85;21102;-82
2022/07/24 04:33:20;;;;;;;17.42;14.75;;;;;;;19.18;100.00;98981.92;2054604;85;21108;-82
2022/07/24 04:36:21;;;;;;;13.98;12.60;;;;;;;19.24;100.00;98982.34;2095789;83;21497;-83
2022/07/24 04:39:22;;;;;;;14.53;13.13;;;;;;;19.24;100.00;98983.67;2118160;83;21568;-83
2022/07/24 04:42:23;;;;;;;16.80;15.13;;;;;;;19.24;100.00;99001.45;2113587;83;21512;-83
2022/07/24 04:45:23;;;;;;;18.48;15.35;;;;;;;19.20;100.00;98998.45;2127052;83;21663;-83
2022/07/24 04:48:25;;;;;;;13.72;12.47;;;;;;;19.12;100.00;99004.61;2120762;83;21100;-83
2022/07/24 04:51:26;;;;;;;14.28;12.88;;;;;;;19.06;100.00;99004.18;2118288;83;21144;-83
2022/07/24 04:54:26;;;;;;;14.85;12.78;;;;;;;19.01;100.00;99000.87;2122620;83;21512;-83
2022/07/24 04:57:27;;;;;;;15.40;13.90;;;;;;;19.09;100.00;99008.50;2110650;83;21010;-83
2022/07/24 05:00:28;;;;;;;16.05;14.53;;;;;;;19.10;100.00;99015.95;2117731;83;21040;-83
2022/07/24 05:03:29;;;;;;;14.78;13.20;;;;;;;19.17;100.00;99014.01;2121047;83;21050;-83
2022/07/24 05:06:29;;;;;;;13.48;12.28;;;;;;;19.36;100.00;99018.20;2118896;83;21107;-84
2022/07/24 05:09:30;;;;;;;15.98;14.07;;;;;;;19.40;100.00;99010.60;2098364;83;21045;-83
2022/07/24 05:12:31;;;;;;;18.35;13.50;;;;;;;19.42;100.00;99013.83;2101329;83;21095;-84
2022/07/24 05:15:31;;;;;;;15.60;13.80;;;;;;;19.45;100.00;99018.15;2114642;83;20994;-82
2022/07/24 05:18:32;;;;;;;14.28;13.05;;;;;;;19.43;100.00;99033.51;2108442;83;21032;-83
2022/07/24 05:21:33;;;;;;;15.03;13.32;;;;;;;19.42;100.00;99029.76;2106685;83;21006;-84
2022/07/24 05:24:33;;;;;;;18.12;13.18;;;;;;;19.57;100.00;99032.81;2112126;83;21009;-83
2022/07/24 05:27:34;;;;;;;13.62;12.40;;;;;;;19.64;100.00;99034.81;2105860;83;21025;-83
2022/07/24 05:30:35;;;;;;;14.28;12.45;;;;;;;20.07;100.00;99032.33;2112757;83;21509;-83
2022/07/24 05:33:36;;;;;;;13.95;12.43;;;;;;;20.42;100.00;99030.41;2104048;83;21543;-83
2022/07/24 05:36:36;;;;;;;12.80;11.60;;;;;;;20.54;100.00;99031.73;2119164;83;21054;-83
2022/07/24 05:39:37;;;;;;;12.98;11.70;;;;;;;21.00;100.00;99036.05;2120029;84;20997;-84
2022/07/24 05:42:38;;;;;;;13.70;11.68;;;;;;;20.90;100.00;99035.06;2118932;83;21017;-83
2022/07/24 05:45:39;;;;;;;12.95;11.85;;;;;;;20.91;100.00;99042.00;2116396;83;21062;-84
2022/07/24 05:48:39;;;;;;;13.00;11.65;;;;;;;21.13;100.00;99038.16;2106274;83;21088;-83
2022/07/24 05:51:40;;;;;;;12.18;11.03;;;;;;;21.59;100.00;99041.07;2107253;83;21055;-83
2022/07/24 05:54:41;;;;;;;11.97;10.82;;;;;;;21.85;100.00;99041.73;2122123;83;20975;-83
2022/07/24 05:57:41;;;;;;;12.10;10.88;;;;;;;21.80;100.00;99042.98;2132120;83;21104;-84
2022/07/24 06:00:42;;;;;;;10.60;9.73;;;;;;;21.75;100.00;99053.55;2123006;83;21045;-84
2022/07/24 06:03:43;;;;;;;10.18;9.33;;;;;;;21.86;100.00;99053.20;2112275;83;21097;-84
2022/07/24 06:06:44;;;;;;;10.35;9.20;;;;;;;22.06;100.00;99052.16;2127033;83;21092;-84
2022/07/24 06:09:45;;;;;;;11.05;10.05;;;;;;;22.58;100.00;99053.62;2098545;83;21533;-83
2022/07/24 06:12:45;;;;;;;12.55;9.43;;;;;;;22.78;100.00;99047.20;2111511;83;22180;-84
2022/07/24 06:15:46;;;;;;;15.80;10.13;;;;;;;23.02;100.00;99055.73;2104180;83;21057;-85
2022/07/24 06:18:47;;;;;;;8.78;7.95;;;;;;;23.02;100.00;99053.06;2120802;83;21484;-84
2022/07/24 06:21:47;;;;;;;10.05;9.25;;;;;;;22.88;100.00;99058.54;2107065;83;21596;-84
2022/07/24 06:24:48;;;;;;;11.03;9.93;;;;;;;22.92;100.00;99060.44;2122974;83;21171;-84
2022/07/24 06:27:49;;;;;;;10.30;9.30;;;;;;;23.14;100.00;99060.41;2124789;83;20991;-84
2022/07/24 06:30:49;;;;;;;9.55;8.65;;;;;;;23.23;100.00;99068.77;2119351;83;21014;-83
2022/07/24 06:33:50;;;;;;;8.20;7.20;;;;;;;23.24;100.00;99066.38;2112848;83;21018;-84
2022/07/24 06:36:51;;;;;;;9.53;8.38;;;;;;;23.32;100.00;99058.41;2112857;83;21006;-84
2022/07/24 06:39:52;;;;;;;9.35;8.48;;;;;;;23.31;100.00;99070.95;2115127;83;21014;-84
2022/07/24 06:42:55;;;;;;;9.83;8.90;;;;;;;23.35;100.00;99068.07;2113916;83;21049;-86
2022/07/24 06:45:55;;;;;;;9.50;8.60;;;;;;;23.42;100.00;99067.87;2125368;83;21069;-85
2022/07/24 06:48:56;;;;;;;10.08;8.83;;;;;;;23.38;100.00;99064.08;2119818;83;21603;-86
2022/07/24 06:51:56;;;;;;;8.18;7.37;;;;;;;23.26;100.00;99063.72;2108665;83;21113;-85
2022/07/24 06:54:57;;;;;;;8.78;7.97;;;;;;;23.31;100.00;99068.81;2099383;83;21013;-87
2022/07/24 06:57:58;;;;;;;7.90;7.10;;;;;;;23.17;100.00;99061.77;2120670;83;21553;-85
2022/07/24 07:00:59;;;;;;;7.47;6.75;;;;;;;23.30;100.00;99062.67;2123780;83;21030;-87
2022/07/24 07:04:00;;;;;;;7.83;7.22;;;;;;;23.39;100.00;99059.81;2102393;83;21128;-86
2022/07/24 07:07:00;;;;;;;7.08;6.22;;;;;;;23.46;100.00;99062.28;2118312;83;21072;-84
2022/07/24 07:10:01;;;;;;;9.88;7.47;;;;;;;23.42;100.00;99065.20;2110372;83;21026;-84
2022/07/24 07:13:02;;;;;;;7.78;7.17;;;;;;;23.34;100.00;99070.47;2125241;83;21113;-85
2022/07/24 07:16:02;;;;;;;8.95;8.35;;;;;;;23.19;100.00;99070.32;2122558;84;21493;-85
2022/07/24 07:19:03;;;;;;;8.80;7.92;;;;;;;23.07;100.00;99072.34;2116213;82;20985;-84
2022/07/24 07:22:04;;;;;;;8.88;8.10;;;;;;;23.01;100.00;99072.01;2118383;83;21016;-84
2022/07/24 07:25:05;;;;;;;7.45;6.60;;;;;;;22.96;100.00;99076.78;2116509;83;21509;-90
2022/07/24 07:28:05;;;;;;;7.70;6.55;;;;;;;23.06;100.00;99074.74;2126572;83;22165;-85
2022/07/24 07:31:06;;;;;;;8.63;7.90;;;;;;;23.08;100.00;99072.63;2123180;83;21081;-87
2022/07/24 07:34:07;;;;;;;7.08;6.35;;;;;;;23.19;100.00;99069.79;2109684;83;21016;-84
2022/07/24 07:37:08;;;;;;;7.03;6.28;;;;;;;23.26;100.00;99078.41;2114235;83;21060;-83
2022/07/24 07:40:08;;;;;;;7.12;6.10;;;;;;;23.44;100.00;99073.75;2104946;83;21073;-81
2022/07/24 07:43:09;;;;;;;5.62;5.22;;;;;;;23.27;100.00;99073.88;2110024;83;21545;-87
2022/07/24 07:46:10;;;;;;;5.53;5.00;;;;;;;23.25;100.00;99077.33;2124699;83;21102;-87
2022/07/24 07:49:13;;;;;;;6.90;6.22;;;;;;;23.07;100.00;99077.16;2124547;83;22233;-86
2022/07/24 07:52:14;;;;;;;5.40;4.75;;;;;;;23.23;100.00;99076.25;2110344;83;21046;-85
2022/07/24 07:55:15;;;;;;;6.03;5.22;;;;;;;23.58;100.00;99071.45;2108290;83;21047;-88
2022/07/24 07:58:16;;;;;;;5.70;5.30;;;;;;;23.73;100.00;99077.75;2117309;83;21027;-86
2022/07/24 08:01:16;;;;;;;5.40;4.80;;;;;;;23.50;100.00;99085.58;2105904;83;21577;-89
2022/07/24 08:04:17;;;;;;;4.67;4.12;;;;;;;23.39;100.00;99081.18;2121913;83;21057;-87
2022/07/24 08:07:18;;;;;;;6.05;4.72;;;;;;;23.24;100.00;99088.55;2124317;83;21068;-87
2022/07/24 08:10:19;;;;;;;5.40;4.97;;;;;;;23.14;100.00;99079.11;2124174;83;21573;-87
2022/07/24 08:13:20;;;;;;;6.53;5.72;;;;;;;23.45;100.00;99082.05;2123469;83;21094;-87
2022/07/24 08:16:20;;;;;;;5.28;4.85;;;;;;;23.62;100.00;99085.96;2123569;83;21049;-87
2022/07/24 08:19:21;;;;;;;5.62;5.17;;;;;;;23.59;100.00;99087.28;2123767;83;20988;-85
2022/07/24 08:22:22;;;;;;;7.15;5.28;;;;;;;23.64;100.00;99091.84;2117538;83;21044;-86
2022/07/24 08:25:22;;;;;;;7.10;4.87;;;;;;;23.78;100.00;99081.81;2126811;83;21072;-89
2022/07/24 08:28:23;;;;;;;5.50;4.53;;;;;;;23.89;100.00;99100.60;2109340;83;21492;-87
2022/07/24 08:31:24;;;;;;;4.45;4.05;;;;;;;23.83;100.00;99099.75;2099176;83;21084;-84
2022/07/24 08:34:25;;;;;;;6.45;4.42;;;;;;;23.88;100.00;99097.12;2119752;83;21073;-85
2022/07/24 08:37:25;;;;;;;4.92;4.53;;;;;;;23.83;100.00;99099.22;2121434;83;21057;-87
2022/07/24 08:40:26;;;;;;;6.97;5.08;;;;;;;23.93;100.00;99098.48;2123481;83;21081;-87
2022/07/24 08:43:27;;;;;;;5.20;4.80;;;;;;;23.86;100.00;99105.91;2111300;83;21057;-89
2022/07/24 08:46:28;;;;;;;5.12;4.62;;;;;;;23.67;100.00;99106.83;2112096;83;21357;-87
2022/07/24 08:49:28;;;;;;;4.50;4.17;;;;;;;23.52;100.00;99108.84;2118109;83;21026;-87
2022/07/24 08:52:29;;;;;;;4.72;4.30;;;;;;;23.47;100.00;99102.63;2116517;83;21480;-88
2022/07/24 08:55:30;;;;;;;3.60;3.30;;;;;;;23.70;100.00;99105.01;2098683;83;21039;-86
2022/07/24 08:58:30;;;;;;;4.33;3.92;;;;;;;23.75;100.00;99105.03;2105416;83;21022;-87
2022/07/24 09:01:31;;;;;;;6.00;4.00;;;;;;;23.72;100.00;99109.56;2122739;83;21454;-86
2022/07/24 09:04:32;;;;;;;4.65;4.25;;;;;;;23.72;100.00;99116.78;2109165;83;20989;-87
2022/07/24 09:07:33;;;;;;;4.60;4.28;;;;;;;23.63;100.00;99112.95;2121318;83;21041;-88
2022/07/24 09:10:33;;;;;;;4.25;3.80;;;;;;;23.51;100.00;99107.77;2106636;83;20969;-88
2022/07/24 09:16:53;;;;;;;5.30;4.28;;;;;;;23.56;100.00;99117.14;2120478;83;22155;-85
2022/07/24 09:19:54;;;;;;;3.42;2.90;;;;;;;23.64;100.00;99114.56;2118445;83;21115;-87
2022/07/24 09:22:55;;;;;;;5.37;4.60;;;;;;;23.77;100.00;99108.78;2119297;83;21556;-86
2022/07/24 09:25:56;;;;;;;3.80;3.50;;;;;;;24.00;100.00;99111.63;2114605;83;21085;-86
2022/07/24 09:28:57;;;;;;;3.92;3.70;;;;;;;24.01;100.00;99104.69;2105337;83;20979;-87
2022/07/24 09:31:58;;;;;;;3.12;2.90;;;;;;;24.16;100.00;99112.55;2118319;83;21048;-88
2022/07/24 09:34:59;;;;;;;5.87;3.95;;;;;;;24.20;100.00;99112.29;2115166;83;21010;-87
2022/07/24 09:37:59;;;;;;;4.60;4.12;;;;;;;24.06;100.00;99112.76;2106324;83;21099;-87
2022/07/24 09:41:00;;;;;;;4.35;3.85;;;;;;;23.89;100.00;99115.30;2115087;83;21061;-86
2022/07/24 09:44:02;;;;;;;3.35;2.98;;;;;;;23.90;100.00;99094.19;2100947;83;21009;-87
2022/07/24 09:47:03;;;;;;;5.30;3.27;;;;;;;23.94;100.00;99112.12;2110701;83;21100;-87
2022/07/24 09:50:03;;;;;;;3.50;3.20;;;;;;;24.01;100.00;99101.20;2104620;83;21026;-86
2022/07/24 09:53:04;;;;;;;3.02;2.85;;;;;;;24.08;100.00;99107.14;2126468;83;21058;-88
2022/07/24 09:56:05;;;;;;;3.70;3.40;;;;;;;24.31;100.00;99098.73;2125010;83;20994;-87
2022/07/24 09:59:07;;;;;;;4.25;3.17;;;;;;;24.68;100.00;99088.45;2123028;83;21014;-86
2022/07/24 10:02:08;;;;;;;2.52;2.42;;;;;;;24.92;100.00;99096.31;2118335;83;21061;-86
2022/07/24 10:05:09;;;;;;;3.25;3.02;;;;;;;25.13;100.00;99101.20;2116680;83;21492;-88
2022/07/24 10:08:10;;;;;;;2.67;2.37;;;;;;;25.10;100.00;99091.03;2107632;83;21104;-86
2022/07/24 10:11:10;;;;;;;3.10;2.90;;;;;;;24.88;90.97;99093.10;2125040;83;21025;-87
2022/07/24 10:14:11;;;;;;;2.80;2.60;;;;;;;24.57;76.17;99102.34;2099381;83;21002;-87
2022/07/24 10:17:12;;;;;;;3.00;2.50;;;;;;;24.42;77.93;99098.28;2113927;83;21090;-86
2022/07/24 10:20:13;;;;;;;2.67;2.22;;;;;;;24.46;68.59;99094.00;2100825;83;20993;-85
2022/07/24 10:23:13;;;;;;;2.62;2.47;;;;;;;24.56;66.21;99095.92;2112110;83;21629;-87
2022/07/24 10:26:14;;;;;;;3.10;2.58;;;;;;;24.67;66.77;99088.19;2108148;83;21073;-87
2022/07/24 10:29:15;;;;;;;2.65;2.55;;;;;;;24.67;68.83;99090.33;2104269;83;21008;-87
2022/07/24 10:32:16;;;;;;;2.90;2.70;;;;;;;24.56;64.16;99107.96;2104704;83;21080;-84
2022/07/24 10:35:16;;;;;;;4.90;3.08;;;;;;;24.32;66.99;99107.06;2117723;83;21053;-87
2022/07/24 10:38:17;;;;;;;4.20;3.00;;;;;;;24.27;67.88;99100.30;2122858;84;21014;-87
2022/07/24 10:41:18;;;;;;;2.55;2.42;;;;;;;24.30;62.17;99098.44;2121816;83;21077;-87
2022/07/24 10:44:19;;;;;;;5.92;2.75;;;;;;;24.35;61.99;99098.50;2105662;83;21036;-87
2022/07/24 10:47:20;;;;;;;2.58;2.33;;;;;;;24.44;63.20;99083.30;2115357;84;21329;-89
2022/07/24 10:50:22;;;;;;;2.10;2.00;;;;;;;24.54;60.57;99091.36;2124201;82;21086;-87
2022/07/24 10:53:22;;;;;;;2.52;2.25;;;;;;;24.57;60.59;99096.98;2106234;83;21579;-87
2022/07/24 10:56:23;;;;;;;2.55;2.45;;;;;;;24.59;62.52;99098.86;2109290;83;21009;-86
2022/07/24 10:59:28;;;;;;;3.50;2.47;;;;;;;24.68;60.88;99091.94;2105273;83;21053;-86
2022/07/24 11:02:27;;;;;;;3.60;2.50;;;;;;;24.80;57.15;99089.59;2102123;83;21060;-88
2022/07/24 11:05:29;;;;;;;2.70;2.50;;;;;;;24.84;60.05;99090.12;2120768;83;21085;-87
2022/07/24 11:08:30;;;;;;;2.37;2.15;;;;;;;24.95;59.68;99085.59;2127668;83;21069;-87
2022/07/24 11:11:31;;;;;;;2.20;2.10;;;;;;;24.97;55.71;99090.18;2109656;83;21208;-87
2022/07/24 11:14:32;;;;;;;1.92;1.82;;;;;;;24.65;52.16;99089.80;2103262;82;21056;-87
2022/07/24 11:17:33;;;;;;;4.00;2.37;;;;;;;24.48;51.83;99083.03;2127208;83;21006;-88
2022/07/24 11:20:33;;;;;;;2.27;2.08;;;;;;;24.55;50.40;99082.27;2121256;83;20994;-88
2022/07/24 11:23:34;;;;;;;2.05;1.95;;;;;;;24.68;50.37;99077.75;2103573;82;21040;-88
2022/07/24 11:26:40;;;;;;;2.70;2.02;;;;;;;24.75;49.11;99068.95;2120697;83;21531;-88
2022/07/24 11:29:37;;;;;;;1.77;1.67;;;;;;;24.77;48.42;99065.47;2119031;83;21058;-87
2022/07/24 11:32:38;;;;;;;1.75;1.70;;;;;;;24.90;48.08;99060.96;2120448;83;21053;-85
2022/07/24 11:35:39;;;;;;;3.22;2.33;;;;;;;24.90;48.08;99060.96;2107925;83;20985;-86
2022/07/24 11:38:40;;;;;;;2.00;1.90;;;;;;;25.07;48.67;99066.13;2123189;83;21095;-85
2022/07/24 11:41:40;;;;;;;2.22;2.00;;;;;;;25.19;49.05;99074.70;2123925;83;21073;-87
2022/07/24 11:44:41;;;;;;;3.22;1.45;;;;;;;25.21;44.83;99079.25;2126065;82;21045;-88
2022/07/24 11:47:42;;;;;;;1.67;1.67;;;;;;;25.11;44.47;99061.03;2129869;83;21091;-86
2022/07/24 11:50:43;;;;;;;3.92;1.62;;;;;;;25.07;43.72;99077.38;2121956;83;21101;-85
2022/07/24 11:53:44;;;;;;;2.35;2.20;;;;;;;24.88;44.81;99065.78;2124843;84;21030;-89
2022/07/24 11:56:45;;;;;;;2.60;1.60;;;;;;;24.93;45.85;99069.80;2106642;83;21081;-90
2022/07/24 11:59:45;;;;;;;2.08;1.85;;;;;;;24.95;43.27;99075.69;2101958;83;21432;-88
2022/07/24 12:02:46;;;;;;;2.08;1.98;;;;;;;24.77;44.19;99072.16;2104940;83;21108;-86
2022/07/24 12:05:47;;;;;;;1.57;1.32;;;;;;;24.75;44.25;99071.63;2123187;83;21018;-90
2022/07/24 12:08:48;;;;;;;3.95;1.32;;;;;;;24.71;42.37;99074.57;2115109;83;21030;-86
2022/07/24 12:11:48;;;;;;;1.30;1.30;;;;;;;24.66;42.74;99068.65;2105386;83;21080;-90
2022/07/24 12:14:49;;;;;;;1.40;1.40;;;;;;;24.71;43.28;99068.41;2104921;83;21542;-88
2022/07/24 12:17:50;;;;;;;1.60;1.50;;;;;;;24.83;45.02;99063.62;2124472;83;21084;-85
2022/07/24 12:20:51;;;;;;;2.92;1.85;;;;;;;25.02;45.77;99061.25;2128983;83;21014;-88
2022/07/24 12:23:53;;;;;;;2.95;1.60;;;;;;;25.16;43.89;99069.08;2121744;83;21663;-85
2022/07/24 12:26:54;;;;;;;1.47;1.47;;;;;;;25.33;42.48;99072.83;2122645;83;21030;-86
2022/07/24 12:29:55;;;;;;;1.45;1.42;;;;;;;25.61;45.65;99065.62;2122389;83;21013;-88
2022/07/24 12:32:55;;;;;;;3.02;1.52;;;;;;;25.83;44.01;99061.33;2113737;83;21049;-84
2022/07/24 12:35:56;;;;;;;2.27;1.50;;;;;;;25.95;43.43;99055.13;2124065;83;21094;-85
2022/07/24 12:38:57;;;;;;;1.30;1.20;;;;;;;25.83;43.63;99061.33;2115311;83;20985;-85
2022/07/24 12:41:58;;;;;;;1.25;1.25;;;;;;;25.77;42.82;99061.05;2107237;83;21048;-86
2022/07/24 12:44:59;;;;;;;1.47;1.25;;;;;;;25.83;43.70;99063.20;2114353;83;21026;-85
2022/07/24 12:48:00;;;;;;;1.90;1.05;;;;;;;25.88;44.09;99058.65;2120870;83;21061;-88
2022/07/24 12:51:00;;;;;;;2.70;1.72;;;;;;;25.87;41.15;99054.33;2124382;83;21033;-88
2022/07/24 12:54:01;;;;;;;2.25;1.05;;;;;;;25.70;40.44;99064.55;2124046;84;21053;-95
2022/07/24 12:57:02;;;;;;;3.20;1.27;;;;;;;25.43;40.87;99058.92;2094825;82;21128;-91
2022/07/24 13:00:03;;;;;;;1.60;1.20;;;;;;;25.30;39.59;99054.08;2124492;83;21531;-89
2022/07/24 13:03:04;;;;;;;2.33;1.40;;;;;;;25.17;41.06;99049.25;2123575;83;21513;-89
2022/07/24 13:06:05;;;;;;;1.92;1.10;;;;;;;25.20;40.67;99064.79;2087550;83;20965;-88
2022/07/24 13:09:06;;;;;;;1.07;1.07;;;;;;;25.22;40.68;99050.05;2118025;83;21600;-89
2022/07/24 13:12:07;;;;;;;0.95;0.78;;;;;;;25.26;40.87;99049.00;2128108;83;21053;-90
2022/07/24 13:15:07;;;;;;;1.17;1.07;;;;;;;25.35;40.50;99061.33;2126483;83;21090;-86
2022/07/24 13:18:08;;;;;;;3.12;1.20;;;;;;;25.40;41.34;99044.70;2127663;83;21581;-88
2022/07/24 13:21:09;;;;;;;2.25;1.62;;;;;;;25.46;40.95;99044.97;2101672;83;21065;-87
2022/07/24 13:24:09;;;;;;;1.90;1.00;;;;;;;25.46;41.50;99041.48;2123891;83;21079;-89
2022/07/24 13:27:12;;;;;;;1.40;1.02;;;;;;;25.46;40.27;99049.53;2106805;83;21638;-89
2022/07/24 13:30:15;;;;;;;1.77;1.12;;;;;;;25.40;39.85;99039.33;2110060;83;21085;-89
2022/07/24 13:33:15;;;;;;;2.40;1.20;;;;;;;25.40;41.29;99040.67;2113501;83;20998;-90
2022/07/24 13:36:16;;;;;;;2.22;1.07;;;;;;;25.48;40.95;99040.67;2109984;83;21192;-89
2022/07/24 13:39:17;;;;;;;3.40;1.30;;;;;;;25.55;40.32;99043.90;2121075;83;21046;-88
2022/07/24 13:42:18;;;;;;;1.02;1.02;;;;;;;25.56;39.75;99047.38;2107875;83;21539;-89
2022/07/24 13:45:18;;;;;;;0.90;0.90;;;;;;;25.59;40.15;99041.47;2124994;83;21065;-89
2022/07/24 13:48:19;;;;;;;2.72;1.15;;;;;;;25.48;39.12;99040.14;2101737;83;21485;-89
2022/07/24 13:51:20;;;;;;;0.95;0.95;;;;;;;25.35;39.22;99043.38;2109609;83;21085;-89
2022/07/24 13:54:20;;;;;;;1.82;1.02;;;;;;;25.29;39.25;99034.25;2119671;83;21025;-88
2022/07/24 13:57:21;;;;;;;2.12;0.95;;;;;;;25.27;39.10;99035.06;2097159;83;21048;-89
2022/07/24 14:00:24;;;;;;;1.02;1.02;;;;;;;25.31;39.07;99045.50;2124000;82;21097;-90